Etusivu
METAR-TAF:

METAR-TAF

Lentoasemat :

Marshalltown Municipal Airport

Marshalltown, Iowa, Yhdysvallat

Leveyspiiri: 42-06-38N, Pituuspiiri: 092-54-58W, korkeus merenpinnasta: 296 m

Tämänhetkinen sää

Tämä raportti tehtiin 52 minuuttia sitten, kello 11.53 UTC
Tuuli 3 kn lounaasta
Lämpötila -8°C
Kosteus 92%
Ilmanpaine 1027 hPa
Näkyvyys: 16.1 km
selkeää

METAR: KMIW 151153Z AUTO 23003KT 10SM CLR M08/M09 A3032 RMK AO2 SLP283 T10781089 11061 21089 53003 $

Aika: 06:45 (12:45 UTC)


TAF: puuttuu

Säähavainnot ja -ennusteet yli 4000 lentoasemalta (METAR- ja TAF-raportit).

Käytössä olevat sääasemat on merkitty karttaan keltaisilla ja punaisilla pisteillä.

Aseta hiiri pisteen päälle nähdäksesi sääaseman nimen.

Klikkaa sitten nähdäksesi säähavainnot ja -ennusteet.

Kartan vaihtaminen: klikkaa mustalla rastilla varustettuja vihreitä pisteitä, niin voit zoomata sisään; viivalla varustettua vihreää pistettä, niin voit zoomata ulos tai vihreitä nuolia, niin pääset viereisille kartoille.


METAR-TAF: